Ana Sayfa
METAR-TAF:

METAR-TAF

Havaalanları :

Edwards County Airport

Rocksprings, Teksas, Amerika Birleşik Devletleri

Enlem: 29-56-48N, Boylam: 100-10-25W, yükseklik: 723 m

Güncel hava durumu gözlemi

Rapor saat 01:15 UTC de 29 dakika önce yapıldı.
Rüzgar güneydan 7 kt
Sıcaklık 31°C
Nem 59%
Basınç 1011 hPa
Görüş mesafesi: 16.1 km
Açık gökyüzü

METAR: KECU 200115Z AUTO 17007KT 10SM CLR 31/22 A2986 RMK AO2

Saat: 20:44 (01:44 UTC)


TAF: eksik

4.000'den fazla havaalanı için hava durumu gözlemleri ve tahminleri (METAR ve TAF raporları).

Kullanılabilir istasyonlar harita üzerinde sarı ve kırmızı noktalarla gösterilir.

İstasyonun adını görmek için fareyi noktanın üzerinde gezdirin.

Sonrasında hava gözlem ve tahminlerini görmek için tıklayın.

Haritayı değiştirmek için: yaklaştırmak için siyah artı işaretli yeşil düğmeye ve uzaklaştırmak için de eksi işaretli düğmeye hızla tıklayın; bitişik haritalar için yeşil okları kullanın.


METAR-TAF: